sensor_id;sensor_type;location;lat;lon;timestamp;pressure;altitude;pressure_sealevel;temperature;humidity
35848;BME280;22332;51.954;20.118;2024-01-30T00:02:35;101849.54;;;2.15;83.13
35848;BME280;22332;51.954;20.118;2024-01-30T00:05:41;101844.39;;;2.12;83.14
35848;BME280;22332;51.954;20.118;2024-01-30T00:08:46;101848.94;;;2.08;83.02
35848;BME280;22332;51.954;20.118;2024-01-30T00:11:53;101843.13;;;2.04;83.07
35848;BME280;22332;51.954;20.118;2024-01-30T00:14:59;101841.82;;;2.01;83.08
35848;BME280;22332;51.954;20.118;2024-01-30T00:18:05;101835.88;;;2.01;83.12
35848;BME280;22332;51.954;20.118;2024-01-30T00:21:11;101837.54;;;2.03;83.10
35848;BME280;22332;51.954;20.118;2024-01-30T00:24:16;101840.02;;;2.07;82.96
35848;BME280;22332;51.954;20.118;2024-01-30T00:27:22;101839.45;;;2.08;82.90
35848;BME280;22332;51.954;20.118;2024-01-30T00:30:28;101840.13;;;2.08;82.80
35848;BME280;22332;51.954;20.118;2024-01-30T00:33:33;101841.77;;;2.07;82.79
35848;BME280;22332;51.954;20.118;2024-01-30T00:36:39;101846.58;;;2.05;82.62
35848;BME280;22332;51.954;20.118;2024-01-30T00:39:45;101846.86;;;2.02;82.67
35848;BME280;22332;51.954;20.118;2024-01-30T00:42:50;101848.08;;;1.98;82.68
35848;BME280;22332;51.954;20.118;2024-01-30T00:45:56;101845.42;;;1.93;82.63
35848;BME280;22332;51.954;20.118;2024-01-30T00:49:02;101838.59;;;1.89;82.55
35848;BME280;22332;51.954;20.118;2024-01-30T00:52:08;101836.62;;;1.86;82.61
35848;BME280;22332;51.954;20.118;2024-01-30T00:55:13;101831.95;;;1.83;82.61
35848;BME280;22332;51.954;20.118;2024-01-30T00:58:19;101832.12;;;1.88;82.58
35848;BME280;22332;51.954;20.118;2024-01-30T01:01:25;101831.45;;;1.92;82.55
35848;BME280;22332;51.954;20.118;2024-01-30T01:04:31;101834.09;;;1.97;82.36
35848;BME280;22332;51.954;20.118;2024-01-30T01:07:36;101841.04;;;1.99;82.35
35848;BME280;22332;51.954;20.118;2024-01-30T01:10:42;101837.52;;;1.99;82.15
35848;BME280;22332;51.954;20.118;2024-01-30T01:13:48;101835.84;;;1.96;82.18
35848;BME280;22332;51.954;20.118;2024-01-30T01:16:53;101837.05;;;1.92;82.28
35848;BME280;22332;51.954;20.118;2024-01-30T01:19:59;101830.40;;;1.87;82.12
35848;BME280;22332;51.954;20.118;2024-01-30T01:23:05;101827.73;;;1.84;82.07
35848;BME280;22332;51.954;20.118;2024-01-30T01:26:11;101823.23;;;1.77;81.98
35848;BME280;22332;51.954;20.118;2024-01-30T01:29:16;101821.77;;;1.74;82.02
35848;BME280;22332;51.954;20.118;2024-01-30T01:32:22;101825.17;;;1.72;82.22
35848;BME280;22332;51.954;20.118;2024-01-30T01:35:27;101827.29;;;1.72;82.31
35848;BME280;22332;51.954;20.118;2024-01-30T01:38:33;101828.22;;;1.76;82.19
35848;BME280;22332;51.954;20.118;2024-01-30T01:41:39;101826.30;;;1.80;82.11
35848;BME280;22332;51.954;20.118;2024-01-30T01:44:44;101824.08;;;1.83;81.90
35848;BME280;22332;51.954;20.118;2024-01-30T01:47:52;101819.60;;;1.85;81.90
35848;BME280;22332;51.954;20.118;2024-01-30T01:50:58;101820.17;;;1.84;81.73
35848;BME280;22332;51.954;20.118;2024-01-30T01:54:05;101819.70;;;1.83;81.63
35848;BME280;22332;51.954;20.118;2024-01-30T01:57:11;101826.75;;;1.77;81.63
35848;BME280;22332;51.954;20.118;2024-01-30T02:00:17;101820.45;;;1.72;81.64
35848;BME280;22332;51.954;20.118;2024-01-30T02:03:23;101813.86;;;1.70;81.66
35848;BME280;22332;51.954;20.118;2024-01-30T02:06:29;101818.69;;;1.63;81.45
35848;BME280;22332;51.954;20.118;2024-01-30T02:09:34;101822.12;;;1.55;81.45
35848;BME280;22332;51.954;20.118;2024-01-30T02:12:40;101815.76;;;1.52;81.64
35848;BME280;22332;51.954;20.118;2024-01-30T02:15:50;101810.45;;;1.49;81.53
35848;BME280;22332;51.954;20.118;2024-01-30T02:18:56;101803.77;;;1.44;81.57
35848;BME280;22332;51.954;20.118;2024-01-30T02:22:01;101801.48;;;1.40;81.60
35848;BME280;22332;51.954;20.118;2024-01-30T02:25:09;101798.91;;;1.33;81.50
35848;BME280;22332;51.954;20.118;2024-01-30T02:28:14;101795.93;;;1.28;81.68
35848;BME280;22332;51.954;20.118;2024-01-30T02:31:20;101800.13;;;1.29;81.83
35848;BME280;22332;51.954;20.118;2024-01-30T02:34:26;101800.69;;;1.33;81.67
35848;BME280;22332;51.954;20.118;2024-01-30T02:37:31;101797.46;;;1.40;81.62
35848;BME280;22332;51.954;20.118;2024-01-30T02:40:37;101801.06;;;1.46;81.44
35848;BME280;22332;51.954;20.118;2024-01-30T02:43:42;101800.44;;;1.49;81.35
35848;BME280;22332;51.954;20.118;2024-01-30T02:46:48;101802.45;;;1.52;81.26
35848;BME280;22332;51.954;20.118;2024-01-30T02:49:54;101798.68;;;1.53;81.35
35848;BME280;22332;51.954;20.118;2024-01-30T02:52:59;101799.69;;;1.55;81.02
35848;BME280;22332;51.954;20.118;2024-01-30T02:56:06;101804.24;;;1.55;81.21
35848;BME280;22332;51.954;20.118;2024-01-30T02:59:14;101797.80;;;1.54;81.19
35848;BME280;22332;51.954;20.118;2024-01-30T03:02:19;101796.35;;;1.50;81.11
35848;BME280;22332;51.954;20.118;2024-01-30T03:05:25;101796.46;;;1.47;81.24
35848;BME280;22332;51.954;20.118;2024-01-30T03:08:30;101795.93;;;1.48;81.13
35848;BME280;22332;51.954;20.118;2024-01-30T03:11:36;101800.02;;;1.46;81.28
35848;BME280;22332;51.954;20.118;2024-01-30T03:14:42;101801.34;;;1.44;81.20
35848;BME280;22332;51.954;20.118;2024-01-30T03:17:51;101801.06;;;1.41;81.31
35848;BME280;22332;51.954;20.118;2024-01-30T03:20:58;101798.93;;;1.43;81.16
35848;BME280;22332;51.954;20.118;2024-01-30T03:24:04;101794.17;;;1.48;81.31
35848;BME280;22332;51.954;20.118;2024-01-30T03:27:10;101792.90;;;1.53;81.04
35848;BME280;22332;51.954;20.118;2024-01-30T03:30:16;101794.54;;;1.56;81.00
35848;BME280;22332;51.954;20.118;2024-01-30T03:33:22;101797.14;;;1.57;80.96
35848;BME280;22332;51.954;20.118;2024-01-30T03:36:27;101796.48;;;1.56;80.95
35848;BME280;22332;51.954;20.118;2024-01-30T03:39:33;101794.27;;;1.54;80.89
35848;BME280;22332;51.954;20.118;2024-01-30T03:42:38;101796.09;;;1.53;80.87
35848;BME280;22332;51.954;20.118;2024-01-30T03:45:44;101797.52;;;1.52;80.84
35848;BME280;22332;51.954;20.118;2024-01-30T03:48:50;101802.25;;;1.47;80.84
35848;BME280;22332;51.954;20.118;2024-01-30T03:51:55;101798.10;;;1.46;80.81
35848;BME280;22332;51.954;20.118;2024-01-30T03:55:01;101799.11;;;1.42;80.90
35848;BME280;22332;51.954;20.118;2024-01-30T03:58:07;101796.95;;;1.39;80.92
35848;BME280;22332;51.954;20.118;2024-01-30T04:01:16;101794.77;;;1.36;80.98
35848;BME280;22332;51.954;20.118;2024-01-30T04:04:21;101793.55;;;1.36;81.08
35848;BME280;22332;51.954;20.118;2024-01-30T04:07:27;101792.38;;;1.39;81.04
35848;BME280;22332;51.954;20.118;2024-01-30T04:10:33;101792.00;;;1.45;80.94
35848;BME280;22332;51.954;20.118;2024-01-30T04:13:39;101791.63;;;1.50;81.00
35848;BME280;22332;51.954;20.118;2024-01-30T04:16:44;101796.19;;;1.55;80.93
35848;BME280;22332;51.954;20.118;2024-01-30T04:19:50;101794.77;;;1.54;80.57
35848;BME280;22332;51.954;20.118;2024-01-30T04:22:55;101794.48;;;1.53;80.78
35848;BME280;22332;51.954;20.118;2024-01-30T04:26:01;101791.92;;;1.52;80.73
35848;BME280;22332;51.954;20.118;2024-01-30T04:29:07;101791.35;;;1.48;80.66
35848;BME280;22332;51.954;20.118;2024-01-30T04:32:13;101790.24;;;1.45;80.71
35848;BME280;22332;51.954;20.118;2024-01-30T04:35:19;101788.05;;;1.43;80.75
35848;BME280;22332;51.954;20.118;2024-01-30T04:38:27;101791.50;;;1.39;80.71
35848;BME280;22332;51.954;20.118;2024-01-30T04:41:33;101787.98;;;1.34;80.63
35848;BME280;22332;51.954;20.118;2024-01-30T04:44:38;101787.95;;;1.31;80.76
35848;BME280;22332;51.954;20.118;2024-01-30T04:47:44;101788.94;;;1.28;80.77
35848;BME280;22332;51.954;20.118;2024-01-30T04:50:50;101782.36;;;1.26;80.75
35848;BME280;22332;51.954;20.118;2024-01-30T04:53:56;101782.75;;;1.24;80.77
35848;BME280;22332;51.954;20.118;2024-01-30T04:57:01;101781.55;;;1.28;80.75
35848;BME280;22332;51.954;20.118;2024-01-30T05:00:09;101780.65;;;1.34;80.86
35848;BME280;22332;51.954;20.118;2024-01-30T05:03:15;101778.90;;;1.38;80.67
35848;BME280;22332;51.954;20.118;2024-01-30T05:06:26;101783.98;;;1.44;80.70
35848;BME280;22332;51.954;20.118;2024-01-30T05:09:32;101782.83;;;1.46;80.69
35848;BME280;22332;51.954;20.118;2024-01-30T05:12:38;101786.66;;;1.47;80.67
35848;BME280;22332;51.954;20.118;2024-01-30T05:15:44;101788.95;;;1.46;80.58
35848;BME280;22332;51.954;20.118;2024-01-30T05:18:49;101791.48;;;1.44;80.57
35848;BME280;22332;51.954;20.118;2024-01-30T05:21:55;101791.77;;;1.42;80.52
35848;BME280;22332;51.954;20.118;2024-01-30T05:25:00;101790.73;;;1.36;80.53
35848;BME280;22332;51.954;20.118;2024-01-30T05:28:07;101791.39;;;1.33;80.59
35848;BME280;22332;51.954;20.118;2024-01-30T05:31:12;101795.16;;;1.30;80.52
35848;BME280;22332;51.954;20.118;2024-01-30T05:34:18;101796.01;;;1.26;80.53
35848;BME280;22332;51.954;20.118;2024-01-30T05:37:23;101790.38;;;1.22;80.57
35848;BME280;22332;51.954;20.118;2024-01-30T05:40:29;101792.46;;;1.17;80.58
35848;BME280;22332;51.954;20.118;2024-01-30T05:43:34;101795.85;;;1.15;80.72
35848;BME280;22332;51.954;20.118;2024-01-30T05:46:40;101791.57;;;1.13;80.62
35848;BME280;22332;51.954;20.118;2024-01-30T05:49:46;101792.36;;;1.15;80.74
35848;BME280;22332;51.954;20.118;2024-01-30T05:52:52;101792.49;;;1.22;80.69
35848;BME280;22332;51.954;20.118;2024-01-30T05:55:57;101794.23;;;1.27;80.65
35848;BME280;22332;51.954;20.118;2024-01-30T05:59:03;101795.23;;;1.28;80.55
35848;BME280;22332;51.954;20.118;2024-01-30T06:02:08;101794.05;;;1.27;80.51
35848;BME280;22332;51.954;20.118;2024-01-30T06:05:15;101794.75;;;1.27;80.58
35848;BME280;22332;51.954;20.118;2024-01-30T06:08:21;101794.41;;;1.27;80.52
35848;BME280;22332;51.954;20.118;2024-01-30T06:11:26;101792.10;;;1.23;80.42
35848;BME280;22332;51.954;20.118;2024-01-30T06:14:32;101792.71;;;1.21;80.51
35848;BME280;22332;51.954;20.118;2024-01-30T06:17:38;101799.51;;;1.16;80.54
35848;BME280;22332;51.954;20.118;2024-01-30T06:20:44;101797.13;;;1.14;80.57
35848;BME280;22332;51.954;20.118;2024-01-30T06:23:50;101799.88;;;1.11;80.59
35848;BME280;22332;51.954;20.118;2024-01-30T06:26:55;101798.89;;;1.09;80.57
35848;BME280;22332;51.954;20.118;2024-01-30T06:30:01;101793.77;;;1.05;80.66
35848;BME280;22332;51.954;20.118;2024-01-30T06:33:07;101799.23;;;1.04;80.76
35848;BME280;22332;51.954;20.118;2024-01-30T06:36:12;101797.88;;;1.08;80.87
35848;BME280;22332;51.954;20.118;2024-01-30T06:39:18;101797.10;;;1.15;80.77
35848;BME280;22332;51.954;20.118;2024-01-30T06:42:24;101797.11;;;1.25;80.76
35848;BME280;22332;51.954;20.118;2024-01-30T06:45:29;101799.38;;;1.35;80.71
35848;BME280;22332;51.954;20.118;2024-01-30T06:48:35;101800.52;;;1.42;80.88
35848;BME280;22332;51.954;20.118;2024-01-30T06:51:41;101797.84;;;1.48;80.65
35848;BME280;22332;51.954;20.118;2024-01-30T06:54:47;101797.84;;;1.53;80.59
35848;BME280;22332;51.954;20.118;2024-01-30T06:57:52;101800.16;;;1.56;80.65
35848;BME280;22332;51.954;20.118;2024-01-30T07:00:58;101804.45;;;1.59;80.53
35848;BME280;22332;51.954;20.118;2024-01-30T07:04:04;101805.06;;;1.62;80.46
35848;BME280;22332;51.954;20.118;2024-01-30T07:07:10;101806.21;;;1.64;80.59
35848;BME280;22332;51.954;20.118;2024-01-30T07:10:17;101798.13;;;1.64;80.46
35848;BME280;22332;51.954;20.118;2024-01-30T07:13:23;101804.11;;;1.68;80.34
35848;BME280;22332;51.954;20.118;2024-01-30T07:16:29;101811.05;;;1.70;80.46
35848;BME280;22332;51.954;20.118;2024-01-30T07:19:35;101814.08;;;1.73;80.53
35848;BME280;22332;51.954;20.118;2024-01-30T07:22:41;101815.51;;;1.78;80.53
35848;BME280;22332;51.954;20.118;2024-01-30T07:25:46;101809.91;;;1.82;80.48
35848;BME280;22332;51.954;20.118;2024-01-30T07:28:52;101808.81;;;1.92;80.52
35848;BME280;22332;51.954;20.118;2024-01-30T07:31:58;101809.05;;;2.05;80.34
35848;BME280;22332;51.954;20.118;2024-01-30T07:35:04;101809.96;;;2.17;80.51
35848;BME280;22332;51.954;20.118;2024-01-30T07:38:10;101804.39;;;2.29;80.32
35848;BME280;22332;51.954;20.118;2024-01-30T07:41:15;101805.95;;;2.38;80.19
35848;BME280;22332;51.954;20.118;2024-01-30T07:44:21;101807.58;;;2.46;80.07
35848;BME280;22332;51.954;20.118;2024-01-30T07:47:28;101811.67;;;2.53;80.17
35848;BME280;22332;51.954;20.118;2024-01-30T07:50:33;101811.08;;;2.59;80.13
35848;BME280;22332;51.954;20.118;2024-01-30T07:53:39;101809.70;;;2.62;79.90
35848;BME280;22332;51.954;20.118;2024-01-30T07:56:46;101806.17;;;2.66;79.87
35848;BME280;22332;51.954;20.118;2024-01-30T07:59:54;101805.17;;;2.70;79.94
35848;BME280;22332;51.954;20.118;2024-01-30T08:02:59;101805.59;;;2.72;79.71
35848;BME280;22332;51.954;20.118;2024-01-30T08:06:06;101801.98;;;2.75;79.78
35848;BME280;22332;51.954;20.118;2024-01-30T08:09:11;101801.48;;;2.78;79.70
35848;BME280;22332;51.954;20.118;2024-01-30T08:12:17;101785.20;;;2.73;79.62
35848;BME280;22332;51.954;20.118;2024-01-30T08:15:23;101803.70;;;2.84;79.59
35848;BME280;22332;51.954;20.118;2024-01-30T08:18:28;101804.27;;;2.88;79.59
35848;BME280;22332;51.954;20.118;2024-01-30T08:21:34;101804.77;;;2.96;79.56
35848;BME280;22332;51.954;20.118;2024-01-30T08:24:42;101803.79;;;3.07;79.47
35848;BME280;22332;51.954;20.118;2024-01-30T08:27:47;101804.19;;;3.18;79.35
35848;BME280;22332;51.954;20.118;2024-01-30T08:30:54;101805.70;;;3.27;79.35
35848;BME280;22332;51.954;20.118;2024-01-30T08:33:59;101806.63;;;3.34;79.19
35848;BME280;22332;51.954;20.118;2024-01-30T08:37:05;101802.55;;;3.39;78.79
35848;BME280;22332;51.954;20.118;2024-01-30T08:40:11;101803.41;;;3.43;78.92
35848;BME280;22332;51.954;20.118;2024-01-30T08:43:17;101803.05;;;3.47;78.74
35848;BME280;22332;51.954;20.118;2024-01-30T08:46:22;101803.27;;;3.50;78.63
35848;BME280;22332;51.954;20.118;2024-01-30T08:49:28;101800.86;;;3.53;78.62
35848;BME280;22332;51.954;20.118;2024-01-30T08:52:34;101796.88;;;3.55;78.11
35848;BME280;22332;51.954;20.118;2024-01-30T08:55:39;101798.09;;;3.56;78.44
35848;BME280;22332;51.954;20.118;2024-01-30T08:58:45;101799.86;;;3.60;78.61
35848;BME280;22332;51.954;20.118;2024-01-30T09:01:50;101801.15;;;3.62;78.44
35848;BME280;22332;51.954;20.118;2024-01-30T09:04:57;101800.14;;;3.65;78.37
35848;BME280;22332;51.954;20.118;2024-01-30T09:08:03;101800.71;;;3.68;78.57
35848;BME280;22332;51.954;20.118;2024-01-30T09:11:12;101800.59;;;3.71;78.13
35848;BME280;22332;51.954;20.118;2024-01-30T09:14:18;101797.67;;;3.73;78.13
35848;BME280;22332;51.954;20.118;2024-01-30T09:17:24;101791.12;;;3.77;78.16
35848;BME280;22332;51.954;20.118;2024-01-30T09:20:29;101788.83;;;3.81;78.14
35848;BME280;22332;51.954;20.118;2024-01-30T09:23:35;101792.17;;;3.85;78.09
35848;BME280;22332;51.954;20.118;2024-01-30T09:26:41;101789.16;;;3.89;77.97
35848;BME280;22332;51.954;20.118;2024-01-30T09:29:47;101785.33;;;3.92;77.84
35848;BME280;22332;51.954;20.118;2024-01-30T09:32:53;101785.52;;;3.96;77.81
35848;BME280;22332;51.954;20.118;2024-01-30T09:35:58;101782.13;;;4.00;77.70
35848;BME280;22332;51.954;20.118;2024-01-30T09:39:04;101780.17;;;4.04;77.83
35848;BME280;22332;51.954;20.118;2024-01-30T09:42:20;101784.48;;;4.10;77.38
35848;BME280;22332;51.954;20.118;2024-01-30T09:45:31;101786.92;;;4.15;77.46
35848;BME280;22332;51.954;20.118;2024-01-30T09:48:38;101780.52;;;4.19;77.26
35848;BME280;22332;51.954;20.118;2024-01-30T09:51:44;101778.02;;;4.23;77.31
35848;BME280;22332;51.954;20.118;2024-01-30T09:54:50;101775.14;;;4.28;77.24
35848;BME280;22332;51.954;20.118;2024-01-30T09:57:56;101771.55;;;4.33;77.13
35848;BME280;22332;51.954;20.118;2024-01-30T10:01:02;101775.02;;;4.38;77.12
35848;BME280;22332;51.954;20.118;2024-01-30T10:04:08;101772.66;;;4.43;76.98
35848;BME280;22332;51.954;20.118;2024-01-30T10:07:14;101766.26;;;4.48;77.17
35848;BME280;22332;51.954;20.118;2024-01-30T10:10:19;101761.96;;;4.52;77.05
35848;BME280;22332;51.954;20.118;2024-01-30T10:13:26;101759.04;;;4.58;76.40
35848;BME280;22332;51.954;20.118;2024-01-30T10:16:32;101764.11;;;4.62;76.52
35848;BME280;22332;51.954;20.118;2024-01-30T10:19:38;101762.46;;;4.67;76.25
35848;BME280;22332;51.954;20.118;2024-01-30T10:22:43;101762.25;;;4.71;76.47
35848;BME280;22332;51.954;20.118;2024-01-30T10:25:52;101761.32;;;4.76;76.56
35848;BME280;22332;51.954;20.118;2024-01-30T10:28:57;101759.96;;;4.82;76.45
35848;BME280;22332;51.954;20.118;2024-01-30T10:32:04;101755.19;;;4.85;76.50
35848;BME280;22332;51.954;20.118;2024-01-30T10:35:10;101748.73;;;4.91;76.25
35848;BME280;22332;51.954;20.118;2024-01-30T10:38:17;101741.04;;;4.97;76.21
35848;BME280;22332;51.954;20.118;2024-01-30T10:41:27;101739.94;;;5.00;76.33
35848;BME280;22332;51.954;20.118;2024-01-30T10:44:39;101736.56;;;5.04;75.99
35848;BME280;22332;51.954;20.118;2024-01-30T10:47:50;101736.15;;;5.09;75.51
35848;BME280;22332;51.954;20.118;2024-01-30T10:51:01;101733.52;;;5.12;75.89
35848;BME280;22332;51.954;20.118;2024-01-30T10:54:08;101726.61;;;5.16;76.07
35848;BME280;22332;51.954;20.118;2024-01-30T10:57:16;101719.13;;;5.21;75.87
35848;BME280;22332;51.954;20.118;2024-01-30T11:00:23;101718.52;;;5.25;75.62
35848;BME280;22332;51.954;20.118;2024-01-30T11:03:30;101719.30;;;5.30;75.40
35848;BME280;22332;51.954;20.118;2024-01-30T11:06:43;101715.86;;;5.35;75.56
35848;BME280;22332;51.954;20.118;2024-01-30T11:09:52;101711.41;;;5.39;75.46
35848;BME280;22332;51.954;20.118;2024-01-30T11:12:58;101706.58;;;5.44;75.39
35848;BME280;22332;51.954;20.118;2024-01-30T11:16:04;101705.04;;;5.49;75.27
35848;BME280;22332;51.954;20.118;2024-01-30T11:19:13;101703.21;;;5.54;75.13
35848;BME280;22332;51.954;20.118;2024-01-30T11:22:21;101696.35;;;5.60;75.11
35848;BME280;22332;51.954;20.118;2024-01-30T11:25:27;101691.08;;;5.65;74.95
35848;BME280;22332;51.954;20.118;2024-01-30T11:28:35;101686.76;;;5.70;74.83
35848;BME280;22332;51.954;20.118;2024-01-30T11:31:53;101686.90;;;5.70;74.35
35848;BME280;22332;51.954;20.118;2024-01-30T11:34:59;101685.14;;;5.70;74.68
35848;BME280;22332;51.954;20.118;2024-01-30T11:38:05;101682.11;;;5.77;74.62
35848;BME280;22332;51.954;20.118;2024-01-30T11:41:11;101683.52;;;5.87;74.78
35848;BME280;22332;51.954;20.118;2024-01-30T11:44:18;101679.72;;;5.95;74.41
35848;BME280;22332;51.954;20.118;2024-01-30T11:47:25;101672.27;;;6.02;74.03
35848;BME280;22332;51.954;20.118;2024-01-30T11:50:31;101668.38;;;6.08;74.51
35848;BME280;22332;51.954;20.118;2024-01-30T11:53:37;101661.81;;;6.15;73.91
35848;BME280;22332;51.954;20.118;2024-01-30T11:56:43;101656.52;;;6.18;73.79
35848;BME280;22332;51.954;20.118;2024-01-30T11:59:49;101650.52;;;6.21;73.71
35848;BME280;22332;51.954;20.118;2024-01-30T12:02:55;101654.48;;;6.25;73.78
35848;BME280;22332;51.954;20.118;2024-01-30T12:06:02;101646.41;;;6.30;73.47
35848;BME280;22332;51.954;20.118;2024-01-30T12:09:08;101643.18;;;6.34;73.37
35848;BME280;22332;51.954;20.118;2024-01-30T12:12:16;101638.15;;;6.39;72.84
35848;BME280;22332;51.954;20.118;2024-01-30T12:15:22;101636.42;;;6.44;73.41
35848;BME280;22332;51.954;20.118;2024-01-30T12:18:28;101636.05;;;6.47;73.04
35848;BME280;22332;51.954;20.118;2024-01-30T12:21:35;101636.52;;;6.51;72.97
35848;BME280;22332;51.954;20.118;2024-01-30T12:24:41;101634.11;;;6.53;72.73
35848;BME280;22332;51.954;20.118;2024-01-30T12:27:47;101635.91;;;6.55;72.30
35848;BME280;22332;51.954;20.118;2024-01-30T12:31:00;101635.11;;;6.56;72.54
35848;BME280;22332;51.954;20.118;2024-01-30T12:34:07;101633.68;;;6.57;72.53
35848;BME280;22332;51.954;20.118;2024-01-30T12:37:13;101635.72;;;6.58;72.50
35848;BME280;22332;51.954;20.118;2024-01-30T12:40:23;101634.74;;;6.60;72.04
35848;BME280;22332;51.954;20.118;2024-01-30T12:43:31;101634.42;;;6.62;71.95
35848;BME280;22332;51.954;20.118;2024-01-30T12:46:36;101628.20;;;6.62;72.09
35848;BME280;22332;51.954;20.118;2024-01-30T12:49:42;101630.76;;;6.64;71.23
35848;BME280;22332;51.954;20.118;2024-01-30T12:52:48;101627.05;;;6.64;71.74
35848;BME280;22332;51.954;20.118;2024-01-30T12:55:54;101633.71;;;6.65;71.91
35848;BME280;22332;51.954;20.118;2024-01-30T12:58:59;101627.02;;;6.64;71.60
35848;BME280;22332;51.954;20.118;2024-01-30T13:02:05;101627.20;;;6.65;71.67
35848;BME280;22332;51.954;20.118;2024-01-30T13:05:11;101624.14;;;6.65;71.73
35848;BME280;22332;51.954;20.118;2024-01-30T13:08:17;101621.77;;;6.66;71.36
35848;BME280;22332;51.954;20.118;2024-01-30T13:11:22;101623.84;;;6.67;70.99
35848;BME280;22332;51.954;20.118;2024-01-30T13:14:29;101626.80;;;6.68;70.76
35848;BME280;22332;51.954;20.118;2024-01-30T13:17:35;101623.02;;;6.69;71.27
35848;BME280;22332;51.954;20.118;2024-01-30T13:20:42;101618.32;;;6.71;71.04
35848;BME280;22332;51.954;20.118;2024-01-30T13:23:47;101622.98;;;6.73;70.85
35848;BME280;22332;51.954;20.118;2024-01-30T13:26:57;101619.98;;;6.73;70.79
35848;BME280;22332;51.954;20.118;2024-01-30T13:30:03;101617.70;;;6.73;70.61
35848;BME280;22332;51.954;20.118;2024-01-30T13:33:09;101616.14;;;6.72;70.57
35848;BME280;22332;51.954;20.118;2024-01-30T13:36:15;101606.45;;;6.71;70.56
35848;BME280;22332;51.954;20.118;2024-01-30T13:39:21;101603.15;;;6.70;70.30
35848;BME280;22332;51.954;20.118;2024-01-30T13:42:27;101602.67;;;6.69;70.24
35848;BME280;22332;51.954;20.118;2024-01-30T13:45:33;101592.55;;;6.67;70.44
35848;BME280;22332;51.954;20.118;2024-01-30T13:48:38;101595.26;;;6.66;70.18
35848;BME280;22332;51.954;20.118;2024-01-30T13:51:44;101593.91;;;6.65;70.18
35848;BME280;22332;51.954;20.118;2024-01-30T13:54:50;101593.09;;;6.64;70.46
35848;BME280;22332;51.954;20.118;2024-01-30T13:57:55;101595.27;;;6.63;70.15
35848;BME280;22332;51.954;20.118;2024-01-30T14:01:01;101591.48;;;6.62;70.46
35848;BME280;22332;51.954;20.118;2024-01-30T14:04:06;101590.02;;;6.60;70.46
35848;BME280;22332;51.954;20.118;2024-01-30T14:07:12;101589.02;;;6.58;70.23
35848;BME280;22332;51.954;20.118;2024-01-30T14:10:18;101589.85;;;6.57;70.61
35848;BME280;22332;51.954;20.118;2024-01-30T14:13:24;101588.80;;;6.53;70.41
35848;BME280;22332;51.954;20.118;2024-01-30T14:16:29;101590.33;;;6.52;70.38
35848;BME280;22332;51.954;20.118;2024-01-30T14:19:35;101590.14;;;6.49;70.50
35848;BME280;22332;51.954;20.118;2024-01-30T14:22:43;101590.33;;;6.46;70.40
35848;BME280;22332;51.954;20.118;2024-01-30T14:25:48;101589.73;;;6.44;70.33
35848;BME280;22332;51.954;20.118;2024-01-30T14:28:55;101589.23;;;6.41;70.37
35848;BME280;22332;51.954;20.118;2024-01-30T14:32:01;101588.63;;;6.36;70.60
35848;BME280;22332;51.954;20.118;2024-01-30T14:35:08;101587.42;;;6.33;70.61
35848;BME280;22332;51.954;20.118;2024-01-30T14:38:14;101583.23;;;6.28;70.47
35848;BME280;22332;51.954;20.118;2024-01-30T14:41:20;101584.55;;;6.24;70.54
35848;BME280;22332;51.954;20.118;2024-01-30T14:44:25;101583.17;;;6.18;70.62
35848;BME280;22332;51.954;20.118;2024-01-30T14:47:31;101583.64;;;6.10;70.63
35848;BME280;22332;51.954;20.118;2024-01-30T14:50:37;101584.52;;;6.04;70.24
35848;BME280;22332;51.954;20.118;2024-01-30T14:53:42;101580.64;;;5.98;70.88
35848;BME280;22332;51.954;20.118;2024-01-30T14:56:48;101580.23;;;5.93;70.60
35848;BME280;22332;51.954;20.118;2024-01-30T14:59:53;101580.86;;;5.85;70.59
35848;BME280;22332;51.954;20.118;2024-01-30T15:02:59;101580.04;;;5.78;70.73
35848;BME280;22332;51.954;20.118;2024-01-30T15:06:06;101576.65;;;5.69;70.82
35848;BME280;22332;51.954;20.118;2024-01-30T15:09:11;101578.42;;;5.60;70.65
35848;BME280;22332;51.954;20.118;2024-01-30T15:12:19;101578.77;;;5.51;70.85
35848;BME280;22332;51.954;20.118;2024-01-30T15:15:24;101580.64;;;5.39;70.89
35848;BME280;22332;51.954;20.118;2024-01-30T15:18:30;101577.60;;;5.28;71.07
35848;BME280;22332;51.954;20.118;2024-01-30T15:21:36;101582.64;;;5.16;70.96
35848;BME280;22332;51.954;20.118;2024-01-30T15:24:42;101580.30;;;5.01;70.93
35848;BME280;22332;51.954;20.118;2024-01-30T15:27:47;101585.96;;;4.91;71.15
35848;BME280;22332;51.954;20.118;2024-01-30T15:30:53;101580.26;;;4.83;71.06
35848;BME280;22332;51.954;20.118;2024-01-30T15:33:58;101580.23;;;4.73;71.15
35848;BME280;22332;51.954;20.118;2024-01-30T15:37:04;101578.34;;;4.62;71.23
35848;BME280;22332;51.954;20.118;2024-01-30T15:40:12;101575.55;;;4.52;71.40
35848;BME280;22332;51.954;20.118;2024-01-30T15:43:18;101575.29;;;4.40;71.35
35848;BME280;22332;51.954;20.118;2024-01-30T15:46:23;101575.73;;;4.28;71.62
35848;BME280;22332;51.954;20.118;2024-01-30T15:49:29;101572.58;;;4.18;71.52
35848;BME280;22332;51.954;20.118;2024-01-30T15:52:34;101573.17;;;4.06;71.60
35848;BME280;22332;51.954;20.118;2024-01-30T15:55:40;101568.92;;;3.96;71.65
35848;BME280;22332;51.954;20.118;2024-01-30T15:58:46;101569.27;;;3.86;71.68
35848;BME280;22332;51.954;20.118;2024-01-30T16:01:53;101578.11;;;3.78;71.73
35848;BME280;22332;51.954;20.118;2024-01-30T16:04:59;101581.10;;;3.71;71.78
35848;BME280;22332;51.954;20.118;2024-01-30T16:08:06;101579.33;;;3.64;71.78
35848;BME280;22332;51.954;20.118;2024-01-30T16:11:12;101578.21;;;3.58;71.88
35848;BME280;22332;51.954;20.118;2024-01-30T16:14:21;101576.09;;;3.55;71.86